Time;durP1;ratioP1;P1;durP2;ratioP2;P2;SDS_P1;SDS_P2;PMS_P1;PMS_P2;Temp;Humidity;BMP_temperature;BMP_pressure;BME280_temperature;BME280_humidity;BME280_pressure;Samples;Min_cycle;Max_cycle;Signal;HPM_P1;HPM_P2
2023/07/11 00:01:17;;;;;;;4.85;3.50;;;;;;;23.79;48.20;99367.00;7233343;40;20276;31
2023/07/11 00:06:37;;;;;;;5.05;3.40;;;;;;;23.33;48.73;99366.13;7234441;40;20253;31
2023/07/11 00:11:57;;;;;;;5.53;3.55;;;;;;;23.29;48.42;99358.63;7236829;40;20455;31
2023/07/11 00:17:33;;;;;;;4.60;3.40;;;;;;;23.25;48.85;99369.28;7232745;40;20318;31
2023/07/11 00:23:08;;;;;;;4.16;3.32;;;;;;;23.12;49.21;99372.31;7174340;40;20251;31
2023/07/11 00:28:40;;;;;;;6.44;3.68;;;;;;;23.15;49.06;99358.06;7211052;40;21194;31
2023/07/11 00:34:13;;;;;;;3.70;3.28;;;;;;;23.34;49.00;99364.22;7232861;40;21102;31
2023/07/11 00:40:03;;;;;;;5.25;3.47;;;;;;;23.39;48.87;99356.03;7192733;40;21141;31
2023/07/11 00:46:09;;;;;;;4.00;3.10;;;;;;;23.12;49.53;99357.72;7171255;40;21172;31
2023/07/11 00:51:43;;;;;;;4.00;3.10;;;;;;;23.08;49.92;99351.03;7161021;40;21134;31
2023/07/11 00:57:13;;;;;;;7.00;3.62;;;;;;;23.04;49.23;99344.34;7201180;40;21380;31
2023/07/11 01:02:48;;;;;;;4.37;3.20;;;;;;;22.77;50.41;99338.56;7185866;40;20615;31
2023/07/11 01:08:24;;;;;;;5.25;3.25;;;;;;;22.64;50.90;99338.81;7184749;40;20255;31
2023/07/11 01:13:59;;;;;;;4.35;3.42;;;;;;;22.61;50.29;99334.59;7165287;40;20246;31
2023/07/11 01:19:20;;;;;;;4.00;3.50;;;;;;;22.70;49.63;99326.84;7173982;40;20273;31
2023/07/11 01:24:56;;;;;;;6.60;3.78;;;;;;;22.64;50.73;99325.88;7182131;40;20246;31
2023/07/11 01:30:30;;;;;;;5.72;3.65;;;;;;;22.49;51.37;99320.06;7212608;40;20362;31
2023/07/11 01:35:50;;;;;;;4.05;3.30;;;;;;;22.29;51.41;99312.16;7225992;40;20335;31
2023/07/11 01:41:26;;;;;;;4.35;3.22;;;;;;;22.08;52.88;99310.03;7245098;40;20252;31
2023/07/11 01:47:01;;;;;;;3.80;3.25;;;;;;;21.96;53.00;99306.44;7195095;40;20336;31
2023/07/11 01:52:37;;;;;;;4.57;3.72;;;;;;;21.86;52.86;99300.66;7154192;40;20262;31
2023/07/11 01:58:09;;;;;;;4.66;3.60;;;;;;;21.79;52.75;99291.72;7165186;40;20304;31
2023/07/11 02:03:41;;;;;;;4.77;3.43;;;;;;;21.84;53.15;99281.72;7125483;40;20256;31
2023/07/11 02:09:02;;;;;;;4.18;3.37;;;;;;;21.88;52.57;99287.56;7071204;41;20397;31
2023/07/11 02:14:29;;;;;;;5.60;4.03;;;;;;;21.76;52.82;99279.31;7092053;40;20281;31
2023/07/11 02:19:46;;;;;;;5.07;3.40;;;;;;;21.73;52.79;99267.94;7128432;40;20278;31
2023/07/11 02:25:19;;;;;;;6.82;3.75;;;;;;;21.65;53.38;99263.66;7229974;40;20394;31
2023/07/11 02:30:53;;;;;;;7.30;3.33;;;;;;;21.58;53.73;99261.03;7214172;40;20301;31
2023/07/11 02:36:10;;;;;;;4.78;3.53;;;;;;;21.61;53.26;99253.37;7179033;40;20258;31
2023/07/11 02:41:42;;;;;;;7.50;3.93;;;;;;;21.48;54.69;99249.81;7193641;40;20291;31
2023/07/11 02:52:20;;;;;;;5.37;3.30;;;;;;;21.45;54.03;99246.69;7194493;40;20284;31
2023/07/11 02:57:40;;;;;;;5.95;3.25;;;;;;;21.36;54.11;99243.47;7053745;40;20234;31
2023/07/11 03:03:12;;;;;;;4.10;3.55;;;;;;;21.32;54.74;99246.91;7232222;40;20365;31
2023/07/11 03:13:49;;;;;;;4.20;3.20;;;;;;;21.35;53.64;99235.47;7286871;39;21262;31
2023/07/11 03:24:11;;;;;;;4.93;3.65;;;;;;;21.30;53.91;99230.69;7360124;39;20338;31
2023/07/11 03:34:52;;;;;;;4.18;3.40;;;;;;;21.09;55.56;99215.59;7334068;39;20352;31
2023/07/11 03:40:10;;;;;;;4.97;3.57;;;;;;;20.94;54.55;99211.59;7296173;39;20625;31
2023/07/11 03:45:43;;;;;;;6.18;3.45;;;;;;;20.93;55.33;99204.44;7302933;39;21195;31
2023/07/11 03:51:15;;;;;;;5.28;3.50;;;;;;;20.95;55.60;99211.34;7292823;39;20252;31
2023/07/11 03:56:47;;;;;;;5.93;3.65;;;;;;;20.95;54.11;99213.25;7249454;40;20699;31
2023/07/11 04:02:22;;;;;;;5.35;3.80;;;;;;;20.99;54.49;99209.81;7284123;40;20342;31
2023/07/11 04:07:55;;;;;;;4.28;3.30;;;;;;;20.94;55.20;99206.94;7239199;40;20280;31
2023/07/11 04:13:16;;;;;;;6.78;3.60;;;;;;;20.83;55.60;99201.44;7234033;40;20347;31
2023/07/11 04:18:47;;;;;;;3.80;3.40;;;;;;;20.86;55.24;99203.69;7238221;40;20279;31
2023/07/11 04:24:23;;;;;;;7.60;3.37;;;;;;;20.83;56.45;99195.94;7189366;40;20316;31
2023/07/11 04:29:55;;;;;;;5.15;3.45;;;;;;;20.88;55.91;99196.94;7230345;40;20740;31
2023/07/11 04:35:27;;;;;;;6.00;3.90;;;;;;;21.01;55.48;99202.22;7193272;40;20348;31
2023/07/11 04:41:00;;;;;;;5.43;3.70;;;;;;;21.17;55.37;99199.88;7153124;40;20265;31
2023/07/11 04:46:18;;;;;;;4.87;3.67;;;;;;;21.50;54.28;99200.19;7175687;40;20274;31
2023/07/11 04:56:55;;;;;;;6.25;3.65;;;;;;;21.88;53.90;99196.97;7249442;39;21075;31
2023/07/11 05:02:13;;;;;;;6.87;3.58;;;;;;;22.00;53.62;99189.59;7247130;40;20271;31
2023/07/11 05:07:47;;;;;;;6.75;4.18;;;;;;;21.92;53.79;99188.06;7282659;40;20322;31
2023/07/11 05:13:21;;;;;;;6.16;3.88;;;;;;;21.99;54.35;99191.50;7237995;40;20254;31
2023/07/11 05:18:41;;;;;;;4.55;3.60;;;;;;;22.13;51.92;99183.00;7210807;40;20273;31
2023/07/11 05:24:15;;;;;;;5.30;3.78;;;;;;;22.07;53.72;99190.31;7234719;40;20296;31
2023/07/11 05:29:50;;;;;;;7.05;4.18;;;;;;;22.08;54.59;99191.97;7182332;40;20247;31
2023/07/11 05:35:10;;;;;;;4.67;4.10;;;;;;;22.26;53.56;99188.22;7207763;40;20270;31
2023/07/11 05:40:46;;;;;;;4.32;3.92;;;;;;;22.48;53.68;99183.75;7250699;40;20249;31
2023/07/11 05:46:22;;;;;;;6.27;3.93;;;;;;;22.75;53.14;99179.38;7234399;40;20334;31
2023/07/11 05:51:39;;;;;;;6.00;3.75;;;;;;;22.85;51.76;99165.00;7157963;40;20375;31
2023/07/11 06:02:17;;;;;;;5.07;3.67;;;;;;;23.28;50.90;99158.88;7219301;40;21162;31
2023/07/11 06:07:34;;;;;;;4.87;3.97;;;;;;;23.38;51.27;99156.31;7205751;40;20282;31
2023/07/11 06:18:11;;;;;;;5.85;4.35;;;;;;;23.72;50.34;99157.97;7336438;39;20278;31
2023/07/11 06:23:28;;;;;;;6.92;4.18;;;;;;;23.93;50.44;99147.25;7262211;40;21152;31
2023/07/11 06:29:04;;;;;;;8.38;4.80;;;;;;;24.16;49.23;99147.87;7261396;40;21096;31
2023/07/11 06:34:37;;;;;;;8.90;5.15;;;;;;;24.37;49.66;99146.19;7257909;40;21478;31
2023/07/11 06:45:13;;;;;;;12.68;5.57;;;;;;;24.73;49.32;99139.19;7242268;40;21128;31
2023/07/11 06:50:49;;;;;;;14.40;5.80;;;;;;;24.92;49.65;99150.72;7244172;40;20810;31
2023/07/11 06:56:25;;;;;;;14.35;6.15;;;;;;;25.11;47.88;99138.19;7212111;40;20601;31
2023/07/11 07:01:41;;;;;;;14.65;6.03;;;;;;;25.33;47.38;99144.44;7219633;40;20335;31
2023/07/11 07:12:20;;;;;;;10.63;6.23;;;;;;;25.67;47.62;99139.47;7261027;40;20287;31
2023/07/11 07:23:02;;;;;;;18.37;9.38;;;;;;;26.06;46.39;99122.59;7312770;39;20451;31
2023/07/11 07:28:39;;;;;;;18.02;9.23;;;;;;;26.18;45.90;99112.16;7299182;40;20276;31
2023/07/11 07:34:14;;;;;;;17.37;9.77;;;;;;;26.33;44.97;99114.97;7223894;40;20273;31
2023/07/11 07:39:34;;;;;;;16.90;8.02;;;;;;;26.52;44.54;99118.94;7280369;40;20380;31
2023/07/11 07:45:08;;;;;;;14.20;7.44;;;;;;;26.81;44.18;99100.72;7261772;40;20272;31
2023/07/11 07:50:28;;;;;;;13.23;8.30;;;;;;;27.02;43.65;99106.34;7223558;40;20386;31
2023/07/11 07:55:48;;;;;;;13.02;7.25;;;;;;;27.25;43.34;99111.31;7266310;40;20376;31
2023/07/11 08:01:24;;;;;;;10.98;6.47;;;;;;;27.43;42.22;99102.44;7318075;39;20328;31
2023/07/11 08:06:40;;;;;;;10.82;6.28;;;;;;;27.68;41.09;99099.69;7213287;40;20273;31
2023/07/11 08:12:19;;;;;;;13.75;7.93;;;;;;;27.88;42.02;99100.72;7210380;40;20268;31
2023/07/11 08:17:55;;;;;;;14.98;8.40;;;;;;;28.06;40.74;99095.38;7158220;40;20263;31
2023/07/11 08:23:32;;;;;;;13.95;8.38;;;;;;;28.24;41.13;99093.97;7159517;40;20305;31
2023/07/11 08:29:07;;;;;;;15.80;9.30;;;;;;;28.38;40.80;99086.69;7150280;40;20251;31
2023/07/11 08:34:47;;;;;;;17.75;9.10;;;;;;;28.60;42.26;99070.47;7195322;40;20256;31
2023/07/11 08:40:23;;;;;;;16.12;8.94;;;;;;;28.89;41.71;99067.78;7174281;40;20258;31
2023/07/11 08:46:01;;;;;;;15.30;8.50;;;;;;;29.07;41.16;99057.94;7181637;40;20272;31
2023/07/11 08:51:39;;;;;;;11.07;7.10;;;;;;;29.21;40.71;99058.09;7239344;40;20454;31
2023/07/11 08:57:15;;;;;;;10.05;6.72;;;;;;;29.35;41.08;99045.22;7179175;40;20264;31
2023/07/11 09:02:48;;;;;;;13.95;7.10;;;;;;;29.47;41.30;99038.16;7210085;40;20257;31
2023/07/11 09:08:26;;;;;;;12.48;6.74;;;;;;;29.66;41.49;99034.63;7208703;40;20445;31
2023/07/11 09:14:09;;;;;;;7.42;5.52;;;;;;;29.81;40.37;99032.47;7177773;40;20274;31
2023/07/11 09:19:46;;;;;;;12.18;6.14;;;;;;;29.95;40.77;99032.63;7168992;40;20274;31
2023/07/11 09:25:22;;;;;;;10.15;6.80;;;;;;;30.27;40.97;99031.94;7130337;40;20264;31
2023/07/11 09:30:59;;;;;;;10.65;7.05;;;;;;;30.48;40.83;99013.84;7138467;40;20538;31
2023/07/11 09:36:31;;;;;;;10.43;5.75;;;;;;;30.73;40.13;99007.88;6948632;40;21248;31
2023/07/11 09:42:08;;;;;;;8.00;5.50;;;;;;;30.79;40.58;99009.47;7141703;40;20325;31
2023/07/11 09:47:43;;;;;;;7.90;5.12;;;;;;;30.85;39.69;98997.09;7157493;40;20539;31
2023/07/11 09:53:18;;;;;;;7.73;4.60;;;;;;;30.85;41.30;98996.25;7201528;40;20325;31
2023/07/11 09:58:54;;;;;;;8.32;4.18;;;;;;;31.02;40.99;98985.44;7226611;40;20293;31
2023/07/11 10:04:29;;;;;;;5.85;4.70;;;;;;;31.26;40.52;98988.03;7225160;40;20253;31
2023/07/11 10:10:05;;;;;;;6.58;4.62;;;;;;;31.20;41.29;98978.16;7249097;40;20275;31
2023/07/11 10:15:40;;;;;;;5.95;4.40;;;;;;;31.50;40.82;98980.34;7237884;40;20355;31
2023/07/11 10:21:17;;;;;;;8.50;4.65;;;;;;;31.64;40.81;98969.22;7287288;39;20379;31
2023/07/11 10:26:51;;;;;;;8.27;5.20;;;;;;;31.93;40.88;98960.53;7269123;40;20490;31
2023/07/11 10:32:26;;;;;;;6.30;4.57;;;;;;;31.77;41.96;98951.66;7230482;40;20254;31
2023/07/11 10:38:01;;;;;;;8.43;4.90;;;;;;;31.98;42.08;98949.25;7206853;40;20284;31
2023/07/11 10:43:37;;;;;;;8.18;4.82;;;;;;;32.12;42.19;98939.75;7222178;40;20261;31
2023/07/11 10:55:10;;;;;;;5.85;4.70;;;;;;;32.49;40.28;98918.22;7233993;40;20280;31
2023/07/11 11:05:50;;;;;;;5.20;4.70;;;;;;;32.61;40.55;98901.72;7212638;40;20460;31
2023/07/11 11:16:29;;;;;;;6.00;4.70;;;;;;;33.09;39.93;98888.72;7315928;39;20107;31
2023/07/11 11:22:01;;;;;;;7.18;4.53;;;;;;;33.04;39.15;98874.88;7318792;39;20441;31
2023/07/11 11:27:35;;;;;;;7.70;4.70;;;;;;;33.18;39.50;98868.41;7217987;40;21539;31
2023/07/11 11:33:06;;;;;;;5.12;4.40;;;;;;;33.22;40.39;98861.84;7233101;40;21996;31
2023/07/11 11:38:41;;;;;;;6.18;4.53;;;;;;;33.34;39.44;98866.84;7233168;40;20257;31
2023/07/11 11:44:12;;;;;;;6.32;4.40;;;;;;;33.39;38.79;98852.72;7197455;40;20258;31
2023/07/11 11:49:46;;;;;;;7.94;5.18;;;;;;;33.56;37.93;98849.13;7202152;40;21418;31
2023/07/11 11:55:22;;;;;;;5.80;4.47;;;;;;;33.57;38.68;98843.19;7199457;40;20294;31
2023/07/11 12:00:55;;;;;;;5.45;4.60;;;;;;;33.41;38.30;98837.25;7189159;40;20250;31
2023/07/11 12:06:40;;;;;;;5.40;4.60;;;;;;;33.62;37.05;98839.41;7225504;39;20276;31
2023/07/11 12:12:19;;;;;;;8.90;4.92;;;;;;;33.89;39.14;98825.16;7225064;40;20288;31
2023/07/11 12:17:59;;;;;;;6.56;4.86;;;;;;;34.01;37.74;98810.53;7233816;40;20347;31
2023/07/11 12:23:33;;;;;;;9.02;5.00;;;;;;;34.12;37.99;98803.44;7195114;40;20262;31
2023/07/11 12:29:05;;;;;;;6.30;4.83;;;;;;;34.16;37.60;98805.28;7097229;40;21465;31
2023/07/11 12:34:25;;;;;;;7.36;5.16;;;;;;;34.15;37.66;98792.41;7100082;40;20270;31
2023/07/11 12:39:58;;;;;;;6.62;5.00;;;;;;;34.02;37.54;98792.56;7183729;40;20280;31
2023/07/11 12:45:33;;;;;;;7.25;4.53;;;;;;;33.88;37.78;98771.19;7186940;40;21790;31
2023/07/11 12:51:05;;;;;;;9.06;5.12;;;;;;;34.21;37.84;98770.69;7232630;40;20285;31
2023/07/11 12:56:41;;;;;;;6.80;4.80;;;;;;;34.71;36.64;98754.12;7202739;40;20245;31
2023/07/11 13:02:16;;;;;;;6.55;4.40;;;;;;;34.68;36.15;98747.19;7251571;40;20303;31
2023/07/11 13:07:33;;;;;;;6.05;4.78;;;;;;;34.75;36.27;98746.69;7239192;40;20343;31
2023/07/11 13:13:06;;;;;;;6.78;4.92;;;;;;;34.72;36.81;98728.56;7236779;40;20254;31
2023/07/11 13:18:44;;;;;;;9.45;5.28;;;;;;;34.73;37.01;98726.59;7212404;40;20253;31
2023/07/11 13:24:16;;;;;;;7.08;4.83;;;;;;;34.69;36.54;98723.66;7201371;40;22008;31
2023/07/11 13:29:52;;;;;;;6.16;4.90;;;;;;;34.88;36.12;98719.59;7203981;40;20266;31
2023/07/11 13:35:22;;;;;;;7.20;5.00;;;;;;;34.83;36.25;98712.22;7228433;40;20257;31
2023/07/11 13:40:54;;;;;;;9.43;5.70;;;;;;;34.44;36.58;98716.16;7232627;40;20272;31
2023/07/11 13:46:25;;;;;;;6.25;5.15;;;;;;;34.69;36.18;98709.62;7244590;40;21255;31
2023/07/11 13:52:00;;;;;;;6.25;4.82;;;;;;;34.32;36.27;98713.19;7258807;39;20291;31
2023/07/11 13:57:17;;;;;;;5.95;4.53;;;;;;;34.50;36.71;98697.16;7233769;40;20276;31
2023/07/11 14:02:50;;;;;;;5.63;5.03;;;;;;;34.73;35.25;98696.59;7192178;40;20371;31
2023/07/11 14:08:25;;;;;;;6.00;5.18;;;;;;;35.01;35.17;98680.13;7204004;40;20262;31
2023/07/11 14:14:10;;;;;;;6.30;4.94;;;;;;;35.08;35.31;98694.41;7196161;40;20379;31
2023/07/11 14:24:51;;;;;;;8.55;4.62;;;;;;;34.80;34.89;98682.06;7203195;40;20532;31
2023/07/11 14:30:23;;;;;;;8.85;4.90;;;;;;;35.05;33.92;98680.25;7201962;40;21958;31
2023/07/11 14:35:58;;;;;;;6.50;5.00;;;;;;;34.86;34.20;98665.88;7175276;40;20381;31
2023/07/11 14:41:32;;;;;;;6.43;4.97;;;;;;;34.70;33.89;98674.06;7187124;40;20255;31
2023/07/11 14:47:04;;;;;;;5.90;5.10;;;;;;;34.63;34.09;98673.72;7214086;40;20265;31
2023/07/11 14:52:39;;;;;;;7.05;4.40;;;;;;;34.56;35.02;98679.84;7223119;40;20445;31
2023/07/11 14:58:15;;;;;;;9.35;4.82;;;;;;;34.50;35.39;98680.38;7221151;40;20291;31
2023/07/11 15:03:50;;;;;;;5.97;4.93;;;;;;;34.32;35.80;98674.84;7200894;40;20270;31
2023/07/11 15:09:25;;;;;;;6.55;5.10;;;;;;;34.22;34.72;98666.00;7158910;40;20388;31
2023/07/11 15:15:01;;;;;;;6.26;4.80;;;;;;;34.15;36.57;98663.69;7178581;40;20265;31
2023/07/11 15:20:33;;;;;;;7.85;5.00;;;;;;;34.10;35.47;98654.63;7205329;40;20701;31
2023/07/11 15:25:53;;;;;;;7.15;5.00;;;;;;;33.99;36.59;98644.97;7158563;40;20286;31
2023/07/11 15:31:39;;;;;;;9.80;5.07;;;;;;;33.85;35.68;98654.41;7169022;40;21216;31
2023/07/11 15:37:14;;;;;;;6.93;5.25;;;;;;;33.73;37.42;98673.00;7200798;40;20719;31
2023/07/11 15:47:54;;;;;;;10.75;4.85;;;;;;;33.50;38.10;98641.59;7193623;40;20265;31
2023/07/11 15:53:26;;;;;;;9.60;5.20;;;;;;;33.46;38.12;98623.84;7200112;40;20329;31
2023/07/11 16:04:06;;;;;;;7.30;5.20;;;;;;;33.27;37.93;98620.56;7235190;40;21316;31
2023/07/11 16:14:42;;;;;;;8.20;5.28;;;;;;;33.23;38.97;98602.81;7275575;39;20306;31
2023/07/11 16:20:15;;;;;;;7.60;4.97;;;;;;;33.23;39.75;98583.25;7062864;40;21327;31
2023/07/11 16:25:36;;;;;;;8.65;5.53;;;;;;;33.30;40.08;98600.34;7277011;39;20354;31
2023/07/11 16:31:11;;;;;;;7.30;4.82;;;;;;;33.24;39.45;98626.81;7273700;40;20314;31
2023/07/11 16:37:08;;;;;;;6.80;5.50;;;;;;;33.32;39.82;98612.00;7162479;39;20779;31
2023/07/11 16:47:33;;;;;;;9.02;5.43;;;;;;;33.23;42.42;98522.59;7239857;40;20273;31
2023/07/11 16:58:13;;;;;;;9.80;5.80;;;;;;;32.89;41.62;98523.44;7303700;39;20275;31
2023/07/11 17:08:38;;;;;;;9.55;6.12;;;;;;;32.67;41.70;98472.53;7300593;39;20357;31
2023/07/11 17:14:07;;;;;;;11.93;5.30;;;;;;;32.59;42.31;98449.03;7253788;40;20279;31
2023/07/11 17:19:42;;;;;;;10.15;5.25;;;;;;;32.62;42.05;98454.78;7249487;40;20275;31
2023/07/11 17:25:17;;;;;;;6.57;5.25;;;;;;;32.55;42.52;98431.28;7195620;40;20497;31
2023/07/11 17:30:50;;;;;;;6.56;5.30;;;;;;;32.45;43.01;98414.88;7213391;40;20277;31
2023/07/11 17:36:24;;;;;;;10.22;5.30;;;;;;;32.27;44.18;98416.00;7189059;40;20339;31
2023/07/11 17:41:53;;;;;;;9.27;5.40;;;;;;;32.15;44.36;98416.66;7221635;40;20366;31
2023/07/11 17:47:29;;;;;;;10.02;5.20;;;;;;;31.99;44.11;98449.75;7207716;40;20368;31
2023/07/11 17:57:54;;;;;;;9.13;4.80;;;;;;;31.47;44.21;98567.72;7202631;40;20309;31
2023/07/11 18:03:27;;;;;;;6.97;5.30;;;;;;;31.38;48.41;98492.44;7191472;40;20277;31
2023/07/11 18:08:59;;;;;;;9.55;5.22;;;;;;;31.18;50.19;98476.28;7200735;40;20250;31
2023/07/11 18:14:35;;;;;;;9.95;5.32;;;;;;;30.88;51.44;98450.84;7216644;40;20362;31
2023/07/11 18:20:12;;;;;;;7.90;5.20;;;;;;;30.63;50.92;98350.50;7216281;40;20262;31
2023/07/11 18:25:43;;;;;;;9.48;4.94;;;;;;;30.07;55.49;98456.66;7193298;40;20258;31
2023/07/11 18:31:04;;;;;;;8.36;4.84;;;;;;;30.04;54.20;98488.69;7213748;40;20312;31
2023/07/11 18:36:40;;;;;;;8.07;5.03;;;;;;;29.99;54.43;98444.31;7242536;40;20283;31
2023/07/11 18:41:57;;;;;;;7.57;5.65;;;;;;;30.01;53.94;98425.38;7205019;40;22187;31
2023/07/11 18:47:32;;;;;;;7.00;5.00;;;;;;;29.83;55.39;98401.28;7186343;40;20265;31
2023/07/11 18:53:05;;;;;;;8.73;4.93;;;;;;;29.75;56.82;98327.00;7168948;40;20273;31
2023/07/11 18:58:34;;;;;;;6.47;5.20;;;;;;;29.48;55.40;98306.50;7202571;40;20261;31
2023/07/11 19:04:09;;;;;;;7.22;5.26;;;;;;;29.42;54.96;98254.13;7174574;40;20344;31
2023/07/11 19:09:42;;;;;;;8.25;5.53;;;;;;;28.84;58.74;98295.56;7194405;40;20328;31
2023/07/11 19:15:17;;;;;;;10.54;5.50;;;;;;;28.94;58.42;98321.19;7195843;40;20258;31
2023/07/11 19:20:49;;;;;;;8.50;6.32;;;;;;;28.86;58.80;98357.97;7154856;40;20265;31
2023/07/11 19:26:23;;;;;;;6.40;5.70;;;;;;;28.75;59.43;98383.41;7212611;40;20265;31
2023/07/11 19:31:40;;;;;;;7.24;5.78;;;;;;;28.97;57.19;98397.44;7182882;40;20432;31
2023/07/11 19:37:12;;;;;;;8.40;6.65;;;;;;;28.95;58.79;98391.38;7195335;40;20269;31
2023/07/11 19:42:48;;;;;;;8.48;6.70;;;;;;;28.70;61.10;98333.56;7201645;40;20273;31
2023/07/11 19:48:18;;;;;;;10.95;6.40;;;;;;;28.68;60.42;98344.97;7222102;40;20273;31
2023/07/11 19:53:53;;;;;;;11.10;6.70;;;;;;;28.47;62.66;98358.38;7171751;40;22288;31
2023/07/11 20:04:45;;;;;;;7.20;6.10;;;;;;;28.32;60.96;98446.50;7190155;40;20336;31
2023/07/11 20:10:02;;;;;;;5.90;4.95;;;;;;;28.43;60.23;98522.87;7157444;40;20252;31
2023/07/11 20:15:37;;;;;;;7.85;4.65;;;;;;;27.94;58.28;98647.91;7156195;40;20261;31
2023/07/11 20:21:13;;;;;;;10.20;4.20;;;;;;;27.64;57.78;98644.34;7175006;40;20257;31
2023/07/11 20:26:30;;;;;;;5.90;4.90;;;;;;;27.44;58.14;98614.00;7187546;40;20544;31
2023/07/11 20:31:47;;;;;;;5.32;4.76;;;;;;;27.31;60.04;98531.63;7209531;40;20460;31
2023/07/11 20:42:21;;;;;;;10.40;5.00;;;;;;;27.06;62.61;98599.13;7276176;39;21213;31
2023/07/11 20:47:53;;;;;;;8.74;6.16;;;;;;;26.95;63.32;98621.59;7258938;40;20444;31
2023/07/11 20:53:25;;;;;;;8.57;4.57;;;;;;;26.64;63.56;98607.09;7274727;39;20405;31
2023/07/11 20:58:58;;;;;;;5.90;4.00;;;;;;;26.56;63.13;98647.22;7196193;40;20339;31
2023/07/11 21:04:15;;;;;;;7.25;4.80;;;;;;;26.33;63.57;98678.28;7157247;40;20354;31
2023/07/11 21:09:35;;;;;;;6.97;5.10;;;;;;;26.12;64.92;98710.63;7184568;40;20261;31
2023/07/11 21:15:11;;;;;;;6.37;4.43;;;;;;;25.98;64.93;98753.75;7183132;40;20280;31
2023/07/11 21:20:46;;;;;;;7.60;4.80;;;;;;;25.74;65.28;98723.13;7246019;40;20284;31
2023/07/11 21:31:23;;;;;;;7.12;4.57;;;;;;;25.65;67.24;98726.69;7209849;40;21046;31
2023/07/11 21:36:57;;;;;;;8.20;5.60;;;;;;;25.70;67.89;98744.09;7230544;40;20261;31
2023/07/11 21:42:14;;;;;;;7.25;4.82;;;;;;;25.71;67.47;98728.37;7214175;40;20262;31
2023/07/11 21:47:50;;;;;;;6.78;5.20;;;;;;;25.90;66.44;98723.94;7222973;40;20275;31
2023/07/11 21:53:20;;;;;;;10.25;5.57;;;;;;;25.88;67.25;98726.97;7201484;40;20264;31
2023/07/11 21:58:37;;;;;;;6.10;5.20;;;;;;;25.69;67.62;98794.91;7154706;40;21390;31
2023/07/11 22:04:10;;;;;;;8.05;5.30;;;;;;;25.68;67.96;98749.06;7201948;40;20467;31
2023/07/11 22:14:46;;;;;;;5.40;4.90;;;;;;;25.55;69.12;98708.19;7240007;40;20267;31
2023/07/11 22:20:17;;;;;;;8.84;5.78;;;;;;;25.61;69.18;98692.47;7233010;40;20475;31
2023/07/11 22:25:52;;;;;;;7.67;5.63;;;;;;;25.56;68.87;98718.16;7242737;40;20261;31
2023/07/11 22:31:27;;;;;;;10.60;5.75;;;;;;;25.62;70.05;98727.25;7272483;40;20241;31
2023/07/11 22:37:03;;;;;;;7.40;5.35;;;;;;;25.72;69.56;98711.50;7212373;40;20467;31
2023/07/11 22:42:19;;;;;;;7.35;5.78;;;;;;;25.72;68.61;98692.19;7196317;40;20414;31
2023/07/11 22:47:39;;;;;;;7.20;5.80;;;;;;;25.63;69.08;98670.91;7174461;40;20259;31
2023/07/11 22:53:12;;;;;;;9.40;6.50;;;;;;;25.58;70.63;98656.03;7182791;40;20276;31
2023/07/11 22:58:44;;;;;;;8.20;6.00;;;;;;;25.38;71.24;98664.28;6973120;40;20243;31
2023/07/11 23:04:16;;;;;;;11.40;6.18;;;;;;;25.20;71.32;98670.34;7177847;40;20458;31
2023/07/11 23:14:53;;;;;;;7.50;5.72;;;;;;;25.33;71.72;98671.72;7188634;40;20391;31
2023/07/11 23:20:29;;;;;;;9.75;6.15;;;;;;;25.27;71.40;98670.09;7222973;40;20405;31
2023/07/11 23:31:06;;;;;;;5.70;4.20;;;;;;;25.06;70.56;98647.97;7272916;40;21201;31
2023/07/11 23:41:42;;;;;;;6.28;3.90;;;;;;;25.17;69.51;98648.00;7292638;39;21396;31
2023/07/11 23:47:16;;;;;;;6.45;4.10;;;;;;;25.06;70.81;98642.47;7279304;40;20257;31
2023/07/11 23:52:51;;;;;;;6.85;3.85;;;;;;;25.07;70.52;98674.47;7269784;40;20308;31
2023/07/11 23:58:26;;;;;;;6.78;4.00;;;;;;;25.10;70.42;98682.19;7271095;40;20281;31
